createdAt,value
2022-11-27T00:00:45.374Z,4.70
2022-11-27T00:03:12.257Z,4.70
2022-11-27T00:05:38.984Z,4.70
2022-11-27T00:08:05.695Z,4.60
2022-11-27T00:10:32.304Z,4.60
2022-11-27T00:12:58.956Z,4.60
2022-11-27T00:15:25.563Z,4.70
2022-11-27T00:17:52.202Z,4.60
2022-11-27T00:20:18.879Z,5.00
2022-11-27T00:22:45.565Z,4.60
2022-11-27T00:25:12.258Z,4.50
2022-11-27T00:27:38.959Z,4.50
2022-11-27T00:30:05.963Z,4.00
2022-11-27T00:32:32.667Z,4.60
2022-11-27T00:34:59.298Z,4.60
2022-11-27T00:37:25.969Z,4.50
2022-11-27T00:39:52.699Z,4.50
2022-11-27T00:42:19.378Z,4.50
2022-11-27T00:44:45.981Z,4.60
2022-11-27T00:47:12.629Z,4.50
2022-11-27T00:49:39.299Z,4.50
2022-11-27T00:52:05.989Z,5.30
2022-11-27T00:54:33.326Z,4.40
2022-11-27T00:57:00.181Z,3.00
2022-11-27T00:59:26.888Z,4.30
2022-11-27T01:01:53.672Z,5.40
2022-11-27T01:04:20.361Z,4.30
2022-11-27T01:06:47.325Z,4.20
2022-11-27T01:09:14.579Z,4.10
2022-11-27T01:11:41.693Z,4.10
2022-11-27T01:14:13.181Z,3.90
2022-11-27T01:16:43.119Z,4.40
2022-11-27T01:19:10.903Z,3.80
2022-11-27T01:21:37.619Z,3.80
2022-11-27T01:24:04.463Z,3.30
2022-11-27T01:26:31.292Z,3.80
2022-11-27T01:28:58.644Z,3.80
2022-11-27T01:31:27.224Z,3.60
2022-11-27T01:33:55.344Z,3.70
2022-11-27T01:36:22.432Z,3.60
2022-11-27T01:38:49.068Z,3.10
2022-11-27T01:41:21.680Z,3.80
2022-11-27T01:44:25.117Z,3.60
2022-11-27T01:46:54.804Z,3.90
2022-11-27T01:49:21.483Z,3.60
2022-11-27T01:51:52.601Z,3.20
2022-11-27T01:54:20.254Z,3.20
2022-11-27T01:56:48.989Z,3.20
2022-11-27T01:59:16.898Z,3.20
2022-11-27T02:01:43.618Z,3.30
2022-11-27T02:04:10.289Z,3.40
2022-11-27T02:06:37.084Z,3.20
2022-11-27T02:09:03.906Z,3.40
2022-11-27T02:11:33.477Z,3.40
2022-11-27T02:14:09.449Z,3.40
2022-11-27T02:16:58.485Z,3.90
2022-11-27T02:19:28.179Z,3.40
2022-11-27T02:21:59.057Z,3.40
2022-11-27T02:24:46.891Z,3.00
2022-11-27T02:27:32.276Z,3.50
2022-11-27T02:30:01.072Z,3.00
2022-11-27T02:32:32.395Z,4.20
2022-11-27T02:35:25.457Z,5.40
2022-11-27T02:37:56.042Z,2.90
2022-11-27T02:40:30.303Z,2.60
2022-11-27T02:43:15.540Z,2.70
2022-11-27T02:45:43.622Z,2.80
2022-11-27T02:48:12.234Z,2.30
2022-11-27T02:50:39.809Z,2.40
2022-11-27T02:53:12.600Z,2.60
2022-11-27T02:55:40.206Z,2.40
2022-11-27T02:58:09.168Z,2.50
2022-11-27T03:00:37.525Z,2.30
2022-11-27T03:03:06.818Z,4.30
2022-11-27T03:05:36.216Z,2.40
2022-11-27T03:08:07.483Z,3.10
2022-11-27T03:10:40.354Z,2.80
2022-11-27T03:13:07.015Z,2.40
2022-11-27T03:15:45.435Z,2.50
2022-11-27T03:18:16.896Z,2.60
2022-11-27T03:20:44.759Z,3.80
2022-11-27T03:23:11.441Z,2.60
2022-11-27T03:25:38.144Z,2.60
2022-11-27T03:28:08.503Z,2.40
2022-11-27T03:30:35.214Z,2.40
2022-11-27T03:33:02.213Z,2.30
2022-11-27T03:35:29.563Z,2.30
2022-11-27T03:37:56.347Z,2.10
2022-11-27T03:40:25.349Z,2.10
2022-11-27T03:43:08.285Z,2.10
2022-11-27T03:45:44.033Z,2.50
2022-11-27T03:48:13.721Z,2.00
2022-11-27T03:50:46.612Z,2.10
2022-11-27T03:53:13.231Z,1.80
2022-11-27T03:55:39.887Z,1.70
2022-11-27T03:58:14.199Z,1.30
2022-11-27T04:00:42.320Z,1.80
2022-11-27T04:03:09.887Z,1.70
2022-11-27T04:05:36.708Z,1.50
2022-11-27T04:08:03.464Z,1.50
2022-11-27T04:10:30.437Z,1.20
2022-11-27T04:12:57.092Z,1.30
2022-11-27T04:15:23.741Z,1.20
2022-11-27T04:17:50.428Z,1.20
2022-11-27T04:20:17.203Z,1.30
2022-11-27T04:22:43.852Z,1.00
2022-11-27T04:25:10.576Z,1.00
2022-11-27T04:27:37.301Z,1.00
2022-11-27T04:30:04.207Z,1.00
2022-11-27T04:32:30.860Z,1.00
2022-11-27T04:34:57.563Z,1.80
2022-11-27T04:37:24.211Z,0.60
2022-11-27T04:39:50.895Z,1.20
2022-11-27T04:42:17.518Z,1.90
2022-11-27T04:44:44.187Z,1.50
2022-11-27T04:47:10.837Z,1.40
2022-11-27T04:49:37.595Z,1.20
2022-11-27T04:52:04.424Z,1.40
2022-11-27T04:54:31.184Z,1.40
2022-11-27T04:56:57.937Z,1.40
2022-11-27T04:59:24.647Z,1.50
2022-11-27T05:01:51.323Z,-0.20
2022-11-27T05:04:18.049Z,1.40
2022-11-27T05:06:44.766Z,1.20
2022-11-27T05:09:11.513Z,1.30
2022-11-27T05:11:38.129Z,1.50
2022-11-27T05:14:18.024Z,1.50
2022-11-27T05:16:45.637Z,1.20
2022-11-27T05:19:12.562Z,1.30
2022-11-27T05:21:39.189Z,1.20
2022-11-27T05:24:06.097Z,1.30
2022-11-27T05:26:35.618Z,1.30
2022-11-27T05:29:02.648Z,1.20
2022-11-27T05:31:29.344Z,1.60
2022-11-27T05:33:56.046Z,1.30
2022-11-27T05:36:23.044Z,1.90
2022-11-27T05:38:49.671Z,1.30
2022-11-27T05:41:16.303Z,1.20
2022-11-27T05:43:43.120Z,1.10
2022-11-27T05:46:11.058Z,1.30
2022-11-27T05:48:37.734Z,1.20
2022-11-27T05:51:04.868Z,0.50
2022-11-27T05:53:31.991Z,1.20
2022-11-27T05:56:06.392Z,1.30
2022-11-27T05:58:34.357Z,1.40
2022-11-27T06:01:01.219Z,1.30
2022-11-27T06:03:28.007Z,1.30
2022-11-27T06:05:54.898Z,0.50
2022-11-27T06:08:21.557Z,1.30
2022-11-27T06:10:48.927Z,1.40
2022-11-27T06:13:15.977Z,1.40
2022-11-27T06:15:42.628Z,1.40
2022-11-27T06:18:10.731Z,1.30
2022-11-27T06:20:43.358Z,1.40
2022-11-27T06:23:10.943Z,1.30
2022-11-27T06:25:37.562Z,0.60
2022-11-27T06:28:04.348Z,1.50
2022-11-27T06:30:31.003Z,1.70
2022-11-27T06:32:57.777Z,1.70
2022-11-27T06:35:24.493Z,1.80
2022-11-27T06:37:51.127Z,1.70
2022-11-27T06:40:17.959Z,1.70
2022-11-27T06:42:44.623Z,1.30
2022-11-27T06:45:11.499Z,2.20
2022-11-27T06:47:38.175Z,1.90
2022-11-27T06:50:05.412Z,2.10
2022-11-27T06:52:38.706Z,2.00
2022-11-27T06:55:07.092Z,2.00
2022-11-27T06:57:33.853Z,2.00
2022-11-27T07:00:00.480Z,0.30
2022-11-27T07:02:27.369Z,2.00
2022-11-27T07:04:54.238Z,2.10
2022-11-27T07:07:21.074Z,2.00
2022-11-27T07:09:47.830Z,2.10
2022-11-27T07:12:14.461Z,2.20
2022-11-27T07:14:41.810Z,2.20
2022-11-27T07:17:08.632Z,2.30
2022-11-27T07:19:35.306Z,2.30
2022-11-27T07:22:01.973Z,2.40
2022-11-27T07:24:28.656Z,2.40
2022-11-27T07:26:55.309Z,2.40
2022-11-27T07:29:21.985Z,2.40
2022-11-27T07:31:51.219Z,2.50
2022-11-27T07:34:21.692Z,2.50
2022-11-27T07:36:48.756Z,2.50
2022-11-27T07:39:22.241Z,2.50
2022-11-27T07:42:23.155Z,2.50
2022-11-27T07:44:47.351Z,2.40
2022-11-27T07:47:13.974Z,2.40
2022-11-27T07:49:40.703Z,2.40
2022-11-27T07:52:07.525Z,2.40
2022-11-27T07:54:34.613Z,2.30
2022-11-27T07:57:01.432Z,2.40
2022-11-27T07:59:28.737Z,2.40
2022-11-27T08:01:56.004Z,2.60
2022-11-27T08:04:23.056Z,2.90
2022-11-27T08:06:50.120Z,2.80
2022-11-27T08:09:16.816Z,3.10
2022-11-27T08:11:43.510Z,1.90
2022-11-27T08:14:11.013Z,3.30
2022-11-27T08:16:37.771Z,3.40
2022-11-27T08:19:04.549Z,3.70
2022-11-27T08:21:31.408Z,3.50
2022-11-27T08:23:58.170Z,3.50
2022-11-27T08:26:27.667Z,3.50
2022-11-27T08:28:54.867Z,3.60
2022-11-27T08:31:21.620Z,3.70
2022-11-27T08:33:48.429Z,3.80
2022-11-27T08:36:18.266Z,3.90
2022-11-27T08:38:46.181Z,6.20
2022-11-27T08:41:12.946Z,4.10
2022-11-27T08:43:39.599Z,4.30
2022-11-27T08:46:06.886Z,4.40
2022-11-27T08:48:34.194Z,3.70
2022-11-27T08:51:05.216Z,3.80
2022-11-27T08:53:31.966Z,4.70
2022-11-27T08:56:04.794Z,4.90
2022-11-27T08:58:31.520Z,5.10
2022-11-27T09:00:58.255Z,5.40
2022-11-27T09:03:24.913Z,5.60
2022-11-27T09:05:51.977Z,5.80
2022-11-27T09:08:21.516Z,6.10
2022-11-27T09:10:48.197Z,6.30
2022-11-27T09:13:14.869Z,6.60
2022-11-27T09:15:41.556Z,5.80
2022-11-27T09:18:08.253Z,6.80
2022-11-27T09:20:34.988Z,6.70
2022-11-27T09:23:02.587Z,7.10
2022-11-27T09:25:29.407Z,6.80
2022-11-27T09:27:56.182Z,7.20
2022-11-27T09:30:22.907Z,6.90
2022-11-27T09:32:49.601Z,7.00
2022-11-27T09:35:16.383Z,6.50
2022-11-27T09:37:43.176Z,7.10
2022-11-27T09:40:13.973Z,7.20
2022-11-27T09:42:43.889Z,7.30
2022-11-27T09:45:15.202Z,7.50
2022-11-27T09:47:56.777Z,8.20
2022-11-27T09:50:32.015Z,8.00
2022-11-27T09:53:05.601Z,8.40
2022-11-27T09:55:34.161Z,8.10
2022-11-27T09:58:21.261Z,7.90
2022-11-27T10:00:48.792Z,7.90
2022-11-27T10:03:18.630Z,7.90
2022-11-27T10:05:50.591Z,8.00
2022-11-27T10:08:30.478Z,8.10
2022-11-27T10:11:12.582Z,8.30
2022-11-27T10:13:45.337Z,8.70
2022-11-27T10:16:11.991Z,8.40
2022-11-27T10:18:47.916Z,6.90
2022-11-27T10:21:17.541Z,8.70
2022-11-27T10:24:02.698Z,8.40
2022-11-27T10:26:34.117Z,8.60
2022-11-27T10:29:17.626Z,8.40
2022-11-27T10:32:26.812Z,9.00
2022-11-27T10:35:05.286Z,8.30
2022-11-27T10:37:49.148Z,8.70
2022-11-27T10:40:15.909Z,8.60
2022-11-27T10:42:58.489Z,8.50
2022-11-27T10:45:25.121Z,8.90
2022-11-27T10:47:53.085Z,8.40
2022-11-27T10:50:20.175Z,10.20
2022-11-27T10:52:57.359Z,8.70
2022-11-27T10:55:59.507Z,8.90
2022-11-27T10:58:26.255Z,9.10
2022-11-27T11:01:13.401Z,9.40
2022-11-27T11:03:40.260Z,9.70
2022-11-27T11:06:20.644Z,9.80
2022-11-27T11:08:49.396Z,10.10
2022-11-27T11:11:24.693Z,10.10
2022-11-27T11:13:51.590Z,10.70
2022-11-27T11:16:24.335Z,11.10
2022-11-27T11:18:53.243Z,11.30
2022-11-27T11:21:26.040Z,11.30
2022-11-27T11:23:57.844Z,11.60
2022-11-27T11:26:29.872Z,11.60
2022-11-27T11:28:58.642Z,11.40
2022-11-27T11:31:31.200Z,11.40
2022-11-27T11:33:59.287Z,12.00
2022-11-27T11:36:25.941Z,11.30
2022-11-27T11:38:53.124Z,10.90
2022-11-27T11:41:20.305Z,10.80
2022-11-27T11:43:58.377Z,10.80
2022-11-27T11:46:30.831Z,10.90
2022-11-27T11:49:02.049Z,11.10
2022-11-27T11:51:54.855Z,10.90
2022-11-27T11:54:30.736Z,10.90
2022-11-27T11:57:00.117Z,10.50
2022-11-27T11:59:46.533Z,10.50
2022-11-27T12:02:28.763Z,10.70
2022-11-27T12:05:06.239Z,10.80
2022-11-27T12:07:52.609Z,10.70
2022-11-27T12:10:19.381Z,10.70
2022-11-27T12:13:06.335Z,10.50
2022-11-27T12:15:42.087Z,10.50
2022-11-27T12:18:14.937Z,10.50
2022-11-27T12:20:41.514Z,11.30
2022-11-27T12:23:28.346Z,10.50
2022-11-27T12:26:04.940Z,10.60
2022-11-27T12:28:40.724Z,10.70
2022-11-27T12:31:10.461Z,11.00
2022-11-27T12:33:55.377Z,11.10
2022-11-27T12:36:22.109Z,10.90
2022-11-27T12:38:54.997Z,10.70
2022-11-27T12:41:34.701Z,11.00
2022-11-27T12:44:01.482Z,11.60
2022-11-27T12:46:38.483Z,11.00
2022-11-27T12:49:10.262Z,11.90
2022-11-27T12:51:46.237Z,10.80
2022-11-27T12:54:27.976Z,11.30
2022-11-27T12:56:57.885Z,11.30
2022-11-27T12:59:33.872Z,10.90
2022-11-27T13:02:04.093Z,11.20
2022-11-27T13:04:44.251Z,10.90
2022-11-27T13:07:20.335Z,10.80
2022-11-27T13:09:56.272Z,10.80
2022-11-27T13:12:48.335Z,10.50
2022-11-27T13:15:23.661Z,10.70
2022-11-27T13:17:54.180Z,10.50
2022-11-27T13:20:24.508Z,10.30
2022-11-27T13:22:51.760Z,10.30
2022-11-27T13:25:18.422Z,10.40
2022-11-27T13:27:46.578Z,10.20
2022-11-27T13:30:20.196Z,10.10
2022-11-27T13:32:52.334Z,10.50
2022-11-27T13:35:25.909Z,10.00
2022-11-27T13:38:03.567Z,10.00
2022-11-27T13:40:31.927Z,10.70
2022-11-27T13:43:02.649Z,10.00
2022-11-27T13:45:31.446Z,9.90
2022-11-27T13:48:00.120Z,9.90
2022-11-27T13:50:31.115Z,9.80
2022-11-27T13:53:07.505Z,9.70
2022-11-27T13:55:38.117Z,10.10
2022-11-27T13:58:07.242Z,9.60
2022-11-27T14:00:44.665Z,9.60
2022-11-27T14:03:25.227Z,10.10
2022-11-27T14:05:52.310Z,9.50
2022-11-27T14:08:33.487Z,9.20
2022-11-27T14:11:08.670Z,9.30
2022-11-27T14:13:40.906Z,9.80
2022-11-27T14:16:26.429Z,9.30
2022-11-27T14:18:54.200Z,9.50
2022-11-27T14:21:25.337Z,9.00
2022-11-27T14:23:52.905Z,9.20
2022-11-27T14:26:21.015Z,8.90
2022-11-27T14:28:58.202Z,8.80
2022-11-27T14:31:24.899Z,9.00
2022-11-27T14:36:38.271Z,8.70
2022-11-27T14:39:05.095Z,8.70
2022-11-27T14:41:31.853Z,8.60
2022-11-27T14:44:01.590Z,8.60
2022-11-27T14:46:28.701Z,8.80
2022-11-27T14:48:58.970Z,8.70
2022-11-27T14:51:29.690Z,8.50
2022-11-27T14:54:04.292Z,8.40
2022-11-27T14:56:36.096Z,8.50
2022-11-27T14:59:03.216Z,8.70
2022-11-27T15:01:34.529Z,8.40
2022-11-27T15:04:03.682Z,8.80
2022-11-27T15:06:35.002Z,8.30
2022-11-27T15:09:30.313Z,8.30
2022-11-27T15:11:56.806Z,8.30
2022-11-27T15:14:25.085Z,8.50
2022-11-27T15:16:52.740Z,8.20
2022-11-27T15:19:40.038Z,8.20
2022-11-27T15:22:06.896Z,8.20
2022-11-27T15:24:37.737Z,7.60
2022-11-27T15:27:13.509Z,8.60
2022-11-27T15:29:40.980Z,8.30
2022-11-27T15:32:23.664Z,8.50
2022-11-27T15:34:51.144Z,8.20
2022-11-27T15:37:20.896Z,8.30
2022-11-27T15:39:48.361Z,8.10
2022-11-27T15:42:17.564Z,7.90
2022-11-27T15:44:45.031Z,7.90
2022-11-27T15:47:22.759Z,7.90
2022-11-27T15:49:49.817Z,8.20
2022-11-27T15:52:16.504Z,8.00
2022-11-27T15:54:43.566Z,8.00
2022-11-27T15:57:10.553Z,8.70
2022-11-27T15:59:37.414Z,7.70
2022-11-27T16:02:04.927Z,8.30
2022-11-27T16:04:31.581Z,8.00
2022-11-27T16:06:58.361Z,7.90
2022-11-27T16:09:25.018Z,7.90
2022-11-27T16:11:51.881Z,9.10
2022-11-27T16:14:18.665Z,7.90
2022-11-27T16:16:45.496Z,7.90
2022-11-27T16:19:12.469Z,7.90
2022-11-27T16:21:39.303Z,8.00
2022-11-27T16:24:06.622Z,7.90
2022-11-27T16:26:33.718Z,7.90
2022-11-27T16:29:00.677Z,7.90
2022-11-27T16:31:27.610Z,7.90
2022-11-27T16:33:54.411Z,7.90
2022-11-27T16:36:21.556Z,7.90
2022-11-27T16:38:48.887Z,7.90
2022-11-27T16:41:16.886Z,6.70
2022-11-27T16:43:45.542Z,8.00
2022-11-27T16:46:13.542Z,7.90
2022-11-27T16:48:41.202Z,7.80
2022-11-27T16:51:10.158Z,8.30
2022-11-27T16:53:37.621Z,8.20
2022-11-27T16:56:04.811Z,7.90
2022-11-27T16:58:35.401Z,7.50
2022-11-27T17:01:09.341Z,8.20
2022-11-27T17:03:36.861Z,8.50
2022-11-27T17:06:10.641Z,8.40
2022-11-27T17:08:37.524Z,7.80
2022-11-27T17:11:11.746Z,7.90
2022-11-27T17:13:38.579Z,7.80
2022-11-27T17:16:09.822Z,7.90
2022-11-27T17:18:37.274Z,7.80
2022-11-27T17:21:05.141Z,7.90
2022-11-27T17:23:31.929Z,7.70
2022-11-27T17:25:58.703Z,7.70
2022-11-27T17:28:25.473Z,8.20
2022-11-27T17:30:52.412Z,7.80
2022-11-27T17:33:19.169Z,7.70
2022-11-27T17:35:45.955Z,7.80
2022-11-27T17:38:13.336Z,7.80
2022-11-27T17:40:40.120Z,7.80
2022-11-27T17:43:07.090Z,7.70
2022-11-27T17:45:34.159Z,7.70
2022-11-27T17:48:02.231Z,7.80
2022-11-27T17:50:29.078Z,7.80
2022-11-27T17:52:56.656Z,7.80
2022-11-27T17:55:23.972Z,7.80
2022-11-27T17:57:51.023Z,8.10
2022-11-27T18:00:18.723Z,8.40
2022-11-27T18:02:46.319Z,7.80
2022-11-27T18:05:13.067Z,7.60
2022-11-27T18:07:39.928Z,7.80
2022-11-27T18:10:06.988Z,9.40
2022-11-27T18:12:33.709Z,8.50
2022-11-27T18:15:01.439Z,7.60
2022-11-27T18:17:29.151Z,7.70
2022-11-27T18:19:59.594Z,8.00
2022-11-27T18:22:26.346Z,7.60
2022-11-27T18:24:53.545Z,8.00
2022-11-27T18:27:20.622Z,7.70
2022-11-27T18:29:50.308Z,7.70
2022-11-27T18:32:18.641Z,7.80
2022-11-27T18:34:46.145Z,8.00
2022-11-27T18:37:13.230Z,7.80
2022-11-27T18:39:40.358Z,8.10
2022-11-27T18:42:07.871Z,7.30
2022-11-27T18:44:37.266Z,7.60
2022-11-27T18:47:10.176Z,8.10
2022-11-27T18:49:39.294Z,7.60
2022-11-27T18:52:06.602Z,8.10
2022-11-27T18:54:33.555Z,7.50
2022-11-27T18:57:00.357Z,7.30
2022-11-27T18:59:27.008Z,7.50
2022-11-27T19:01:54.126Z,7.50
2022-11-27T19:04:21.206Z,7.50
2022-11-27T19:06:47.931Z,7.40
2022-11-27T19:09:15.037Z,7.30
2022-11-27T19:11:41.886Z,7.50
2022-11-27T19:14:09.076Z,7.30
2022-11-27T19:16:40.487Z,7.30
2022-11-27T19:19:09.388Z,7.30
2022-11-27T19:21:43.583Z,7.30
2022-11-27T19:24:10.842Z,7.40
2022-11-27T19:26:37.576Z,7.30
2022-11-27T19:29:06.446Z,7.40
2022-11-27T19:31:33.540Z,7.30
2022-11-27T19:34:01.587Z,7.60
2022-11-27T19:36:29.576Z,7.50
2022-11-27T19:38:58.119Z,7.30
2022-11-27T19:41:25.356Z,7.40
2022-11-27T19:43:52.198Z,7.60
2022-11-27T19:46:27.346Z,7.30
2022-11-27T19:48:55.027Z,7.30
2022-11-27T19:51:21.751Z,7.30
2022-11-27T19:53:48.467Z,7.30
2022-11-27T19:56:15.206Z,6.70
2022-11-27T19:58:41.910Z,7.40
2022-11-27T20:01:13.869Z,7.40
2022-11-27T20:03:41.957Z,7.40
2022-11-27T20:06:11.190Z,7.50
2022-11-27T20:08:38.574Z,7.80
2022-11-27T20:11:06.184Z,8.50
2022-11-27T20:13:33.116Z,7.30
2022-11-27T20:15:59.814Z,7.30
2022-11-27T20:18:28.026Z,7.30
2022-11-27T20:21:05.241Z,7.30
2022-11-27T20:23:32.734Z,7.10
2022-11-27T20:25:59.739Z,7.20
2022-11-27T20:28:26.470Z,7.10
2022-11-27T20:31:01.193Z,7.00
2022-11-27T20:33:27.977Z,7.40
2022-11-27T20:35:55.041Z,6.80
2022-11-27T20:38:22.340Z,6.90
2022-11-27T20:40:49.583Z,6.80
2022-11-27T20:43:16.542Z,6.80
2022-11-27T20:45:43.648Z,6.70
2022-11-27T20:48:10.902Z,6.70
2022-11-27T20:50:38.832Z,6.60
2022-11-27T20:53:05.833Z,6.60
2022-11-27T20:55:33.192Z,6.60
2022-11-27T20:58:00.085Z,5.70
2022-11-27T21:00:27.126Z,6.50
2022-11-27T21:02:53.891Z,6.40
2022-11-27T21:05:20.687Z,6.20
2022-11-27T21:07:47.394Z,8.40
2022-11-27T21:10:15.477Z,6.30
2022-11-27T21:12:42.854Z,6.40
2022-11-27T21:15:10.037Z,6.40
2022-11-27T21:17:36.991Z,6.40
2022-11-27T21:20:04.471Z,6.60
2022-11-27T21:22:31.822Z,6.30
2022-11-27T21:24:58.674Z,6.30
2022-11-27T21:27:25.457Z,6.30
2022-11-27T21:29:52.230Z,6.30
2022-11-27T21:32:22.624Z,6.30
2022-11-27T21:34:49.836Z,6.20
2022-11-27T21:37:17.847Z,5.10
2022-11-27T21:39:44.698Z,6.20
2022-11-27T21:42:11.479Z,6.20
2022-11-27T21:44:42.194Z,6.00
2022-11-27T21:47:12.221Z,6.20
2022-11-27T21:49:39.765Z,6.00
2022-11-27T21:52:07.285Z,6.20
2022-11-27T21:54:34.344Z,6.10
2022-11-27T21:57:01.209Z,6.00
2022-11-27T21:59:28.064Z,6.10
2022-11-27T22:01:57.409Z,6.10
2022-11-27T22:04:24.728Z,6.10
2022-11-27T22:06:51.589Z,6.00
2022-11-27T22:09:18.520Z,6.00
2022-11-27T22:11:46.297Z,5.10
2022-11-27T22:14:13.696Z,6.10
2022-11-27T22:16:45.228Z,6.10
2022-11-27T22:19:14.402Z,6.00
2022-11-27T22:21:41.465Z,6.00
2022-11-27T22:24:12.224Z,5.40
2022-11-27T22:26:43.454Z,5.90
2022-11-27T22:29:10.230Z,5.30
2022-11-27T22:31:36.891Z,6.00
2022-11-27T22:34:03.908Z,6.00
2022-11-27T22:36:32.249Z,6.10
2022-11-27T22:39:00.063Z,6.10
2022-11-27T22:41:28.899Z,6.00
2022-11-27T22:43:55.789Z,6.10
2022-11-27T22:46:26.942Z,6.10
2022-11-27T22:48:54.771Z,6.50
2022-11-27T22:51:22.102Z,6.10
2022-11-27T22:53:48.828Z,6.10
2022-11-27T22:56:15.518Z,6.20
2022-11-27T22:58:42.607Z,6.30
2022-11-27T23:01:13.965Z,6.30
2022-11-27T23:03:40.771Z,6.30
2022-11-27T23:06:11.846Z,6.30
2022-11-27T23:08:42.393Z,6.30
2022-11-27T23:11:09.720Z,7.50
2022-11-27T23:13:36.547Z,6.20
2022-11-27T23:16:04.087Z,6.20
2022-11-27T23:18:30.800Z,6.10
2022-11-27T23:20:57.480Z,6.20
2022-11-27T23:23:24.450Z,4.50
2022-11-27T23:25:51.106Z,6.10
2022-11-27T23:28:17.822Z,6.00
2022-11-27T23:30:44.636Z,6.10
2022-11-27T23:33:11.309Z,6.10
2022-11-27T23:35:38.107Z,6.10
2022-11-27T23:38:04.803Z,6.10
2022-11-27T23:40:31.487Z,6.10
2022-11-27T23:42:58.142Z,6.10
2022-11-27T23:45:24.913Z,4.40
2022-11-27T23:47:51.865Z,6.20
2022-11-27T23:50:18.513Z,6.40
2022-11-27T23:52:45.180Z,6.20
2022-11-27T23:55:12.134Z,6.30
2022-11-27T23:57:38.865Z,6.40
